KNGU/NGU METAR and TAF weather

Enter ICAO airport designator
Station Type Date Time Source
KNGU METAR 2019/12/08 16:59 UTC NOAA

KNGU 081659Z 09006KT 10SM SCT260 12/03 A3045 RMK AO2 SLP312 T01170028


Station Type Date Time Source
KNGU Decoded METAR 2019/12/08 16:59 UTC NOAA

Norfolk, Naval Air Station, VA, United States (KNGU) 36-56-01N 076-17-45W 8M
Dec 08, 2019 - 11:59 AM EST / 2019.12.08 1659 UTC
Wind: from the E (090 degrees) at 7 MPH (6 KT):0
Visibility: 10 mile(s):0
Sky conditions: partly cloudy
Temperature: 53.1 F (11.7 C)
Dew Point: 37.0 F (2.8 C)
Relative Humidity: 54%
Pressure (altimeter): 30.45 in. Hg (1031 hPa)
ob: KNGU 081659Z 09006KT 10SM SCT260 12/03 A3045 RMK AO2 SLP312 T01170028
cycle: 17

Station Type Date Time Source
KNGU TAF 2019/12/08 15:10 UTC NOAA

TAF KNGU 0815/0915 11010KT 9999 FEW020 BKN250 QNH3040INS
FM082100 VRB06KT 9999 BKN035 QNH3035INS T08/0815Z T12/0819Z FN00198

Example: see airport list